Chestnutridge, Missouri
Current Conditions -  °F | °C
As of 1:55 AM on Monday 24 Nov 2014 (Local Time) from KFWB Reporting Station
Overcast Overcast  
Wind Chill: 32°   Ceiling: 5500
Heat Index: 39°   Visibility: 10mi
Dew Point: 36°   Wind: 12mph
Humidity: 87%   Direction: 280°W
Pressure: 29.57"   Gusts: 22mph
Location:  36.85°N, 93.18°W
Report Text: KFWB 240755Z AUTO 28010G19KT 10SM FEW048 OVC055 04/02 A2957 RMK AO2
Loading
Personal Weather Stations






























Interactive Weather Map New forecast layout! Learn more

10-Day Weather Forecast

Advertisements
Track Severe Weather on mobile